Time;durP1;ratioP1;P1;durP2;ratioP2;P2;SDS_P1;SDS_P2;PMS_P1;PMS_P2;Temp;Humidity;BMP_temperature;BMP_pressure;BME280_temperature;BME280_humidity;BME280_pressure;Samples;Min_cycle;Max_cycle;Signal;HPM_P1;HPM_P2
2022/08/04 09:50:31;;;;;;;;;6.25;3.25;;;;;25.90;55.67;101101.19;5006440;28;45704;-57
2022/08/04 09:53:15;;;;;;;;;5.50;3.25;;;;;26.01;55.32;101102.91;5005894;28;45589;-58
2022/08/04 09:56:02;;;;;;;;;6.25;4.00;;;;;26.20;55.24;101094.16;4981343;28;45511;-60
2022/08/04 09:58:43;;;;;;;;;7.25;4.00;;;;;26.38;54.69;101092.59;4992156;28;45428;-58
2022/08/04 10:01:13;;;;;;;;;6.50;2.25;;;;;26.70;54.59;101095.06;4991574;28;46325;-59
2022/08/04 10:03:44;;;;;;;;;1.50;1.50;;;;;26.89;53.20;101096.91;4990204;28;45329;-57
2022/08/04 10:06:48;;;;;;;;;2.50;1.50;;;;;26.89;53.81;101104.91;4991427;28;45341;-57
2022/08/04 10:09:33;;;;;;;;;4.00;2.00;;;;;26.84;53.18;101100.00;4974493;28;46466;-56
2022/08/04 10:12:16;;;;;;;;;3.75;3.00;;;;;26.85;53.81;101096.34;4992097;28;46259;-57
2022/08/04 10:14:56;;;;;;;;;2.50;1.75;;;;;26.81;53.28;101094.94;4990649;28;45390;-57
2022/08/04 10:17:55;;;;;;;;;4.00;3.50;;;;;26.67;53.60;101082.84;4991229;28;45308;-58
2022/08/04 10:20:41;;;;;;;;;3.00;3.00;;;;;26.59;53.48;101095.16;4985770;28;45618;-57
2022/08/04 10:23:18;;;;;;;;;1.75;1.75;;;;;26.70;53.78;101092.41;4979922;28;46096;-62
2022/08/04 10:25:55;;;;;;;;;2.00;2.00;;;;;26.88;53.64;101095.22;4991784;28;45814;-59
2022/08/04 10:28:23;;;;;;;;;2.00;1.00;;;;;27.00;53.39;101093.28;4991582;28;45298;-61
2022/08/04 10:30:56;;;;;;;;;0.50;0.50;;;;;26.93;53.02;101085.81;4989967;28;45453;-59
2022/08/04 10:33:36;;;;;;;;;3.00;1.00;;;;;26.84;53.27;101093.84;4991880;28;46010;-59
2022/08/04 10:36:08;;;;;;;;;3.00;3.00;;;;;26.90;53.15;101096.78;4987813;28;45195;-69
2022/08/04 10:38:49;;;;;;;;;2.00;2.00;;;;;26.98;52.94;101094.25;4995426;28;45364;-61
2022/08/04 10:41:31;;;;;;;;;2.50;2.25;;;;;27.08;52.51;101091.63;4991468;28;45452;-60
2022/08/04 10:44:23;;;;;;;;;1.00;1.00;;;;;27.37;52.73;101082.75;4990849;28;45303;-60
2022/08/04 10:46:56;;;;;;;;;2.00;2.00;;;;;27.59;51.16;101083.28;5000831;27;45666;-60
2022/08/04 10:49:23;;;;;;;;;3.75;2.00;;;;;27.65;51.77;101071.22;4991013;28;45549;-67
2022/08/04 10:52:04;;;;;;;;;2.75;1.00;;;;;27.71;51.32;101067.97;4991009;28;45257;-66
2022/08/04 10:54:46;;;;;;;;;1.25;1.25;;;;;27.75;51.22;101071.19;4991272;28;46305;-64
2022/08/04 10:57:38;;;;;;;;;3.00;2.00;;;;;27.71;50.97;101073.31;4977931;28;45479;-60
2022/08/04 11:00:08;;;;;;;;;2.25;1.25;;;;;27.68;51.14;101070.09;4976884;28;45336;-60
2022/08/04 11:02:52;;;;;;;;;2.75;2.75;;;;;27.73;51.07;101068.66;4978428;28;45566;-61
2022/08/04 11:05:38;;;;;;;;;2.00;2.00;;;;;27.93;50.28;101077.44;4974962;28;46018;-61
2022/08/04 11:08:10;;;;;;;;;1.50;1.50;;;;;28.01;50.56;101066.03;4980520;27;45355;-56
2022/08/04 11:10:46;;;;;;;;;2.25;1.50;;;;;27.92;49.89;101067.75;4978643;28;45286;-52
2022/08/04 11:13:15;;;;;;;;;3.00;1.25;;;;;27.76;50.03;101064.84;4978305;28;45227;-55
2022/08/04 11:15:47;;;;;;;;;1.00;1.00;;;;;27.79;50.62;101069.91;4978318;28;45400;-58
2022/08/04 11:18:28;;;;;;;;;1.00;1.00;;;;;27.79;49.95;101072.56;4966330;28;45487;-58
2022/08/04 11:21:03;;;;;;;;;3.50;2.00;;;;;27.74;49.59;101074.84;4978077;28;45254;-55
2022/08/04 11:23:33;;;;;;;;;2.25;1.00;;;;;27.78;49.67;101070.88;4975422;28;45407;-54
2022/08/04 11:26:04;;;;;;;;;2.25;1.00;;;;;27.82;49.92;101072.28;4976998;28;46910;-54
2022/08/04 11:28:30;;;;;;;;;4.00;2.00;;;;;27.82;49.83;101078.47;4978795;28;45475;-54
2022/08/04 11:31:10;;;;;;;;;2.00;2.00;;;;;27.74;49.40;101072.19;4978444;28;45284;-58
2022/08/04 11:33:35;;;;;;;;;3.00;1.75;;;;;27.77;50.05;101062.03;4978813;28;45356;-56
2022/08/04 11:36:18;;;;;;;;;2.00;2.00;;;;;27.74;49.75;101059.66;4976853;28;45429;-56
2022/08/04 11:39:21;;;;;;;;;2.25;2.25;;;;;27.76;50.03;101063.03;4975193;28;45168;-61
2022/08/04 11:41:56;;;;;;;;;3.75;3.00;;;;;27.82;49.86;101066.94;4978800;28;45373;-54
2022/08/04 11:44:30;;;;;;;;;3.50;3.50;;;;;27.93;49.74;101065.94;4978532;28;45227;-58
2022/08/04 11:47:02;;;;;;;;;4.75;3.25;;;;;28.09;50.12;101072.34;4994527;28;47478;-63
2022/08/04 11:49:40;;;;;;;;;1.25;1.25;;;;;28.30;50.10;101069.44;4978531;28;45272;-64
2022/08/04 11:52:08;;;;;;;;;6.00;3.75;;;;;28.42;48.81;101068.22;4978238;28;45244;-56
2022/08/04 11:54:36;;;;;;;;;4.75;2.75;;;;;28.51;48.43;101077.22;4979895;28;45530;-57
2022/08/04 11:57:02;;;;;;;;;2.25;1.50;;;;;28.41;48.70;101073.72;4966132;28;45425;-57
2022/08/04 11:59:29;;;;;;;;;2.75;2.50;;;;;28.48;49.09;101077.50;4978384;28;45326;-58
2022/08/04 12:02:09;;;;;;;;;1.50;1.50;;;;;28.60;48.51;101068.28;4985180;28;45297;-58
2022/08/04 12:04:47;;;;;;;;;4.75;4.75;;;;;28.81;48.95;101067.13;4982053;28;45265;-58
2022/08/04 12:07:28;;;;;;;;;3.50;3.50;;;;;28.92;48.00;101073.16;4976117;28;47068;-58
2022/08/04 12:10:19;;;;;;;;;3.00;3.00;;;;;28.85;47.95;101071.22;4977652;28;45637;-58
2022/08/04 12:12:57;;;;;;;;;2.25;2.25;;;;;28.88;47.60;101073.63;4977215;28;45483;-59
2022/08/04 12:15:29;;;;;;;;;4.00;4.00;;;;;28.85;48.11;101079.25;4978264;28;45950;-58
2022/08/04 12:18:22;;;;;;;;;3.50;3.00;;;;;28.90;47.83;101068.94;4977915;28;46101;-58
2022/08/04 12:20:56;;;;;;;;;4.50;4.50;;;;;29.05;47.84;101072.78;4990840;28;45374;-60
2022/08/04 12:23:43;;;;;;;;;4.00;3.75;;;;;29.26;46.95;101062.56;4978409;28;45337;-58
2022/08/04 12:26:16;;;;;;;;;3.75;3.25;;;;;29.48;47.28;101060.41;4965125;28;45456;-59
2022/08/04 12:28:45;;;;;;;;;6.75;5.50;;;;;29.67;46.13;101062.91;4976407;28;46298;-59
2022/08/04 12:31:10;;;;;;;;;5.50;3.25;;;;;29.78;44.91;101065.28;4977398;28;45439;-59
2022/08/04 12:33:46;;;;;;;;;4.33;3.33;;;;;29.85;44.96;101062.84;4979688;28;45293;-59
2022/08/04 12:36:12;;;;;;;;;4.25;4.25;;;;;29.93;44.77;101061.03;4977906;28;45231;-60
2022/08/04 12:38:47;;;;;;;;;3.75;3.75;;;;;30.09;44.15;101062.13;4978328;28;45392;-59
2022/08/04 12:41:20;;;;;;;;;7.25;4.00;;;;;30.16;43.89;101060.47;4977964;28;45410;-59
2022/08/04 12:43:46;;;;;;;;;4.25;4.00;;;;;30.18;44.20;101061.16;4977702;28;45331;-59
2022/08/04 12:46:28;;;;;;;;;6.50;5.50;;;;;30.24;44.17;101063.22;4998233;28;45517;-59
2022/08/04 12:49:01;;;;;;;;;2.50;2.50;;;;;30.30;44.21;101057.19;4977033;28;46309;-57
2022/08/04 12:51:35;;;;;;;;;67.75;48.75;;;;;30.41;44.54;101053.34;4977665;28;45715;-60
2022/08/04 12:54:02;;;;;;;;;5.75;5.75;;;;;30.57;43.84;101059.59;4977929;28;45371;-57
2022/08/04 12:56:29;;;;;;;;;8.25;5.00;;;;;30.64;43.57;101057.16;4977693;28;45330;-58
2022/08/04 12:59:01;;;;;;;;;4.25;3.25;;;;;30.58;42.97;101058.59;4977811;28;45529;-55
2022/08/04 13:01:28;;;;;;;;;4.00;2.25;;;;;30.49;42.74;101056.91;4977412;28;45441;-55
2022/08/04 13:03:58;;;;;;;;;4.75;4.75;;;;;30.27;43.36;101057.53;4977734;28;45370;-56
2022/08/04 13:06:36;;;;;;;;;4.75;4.00;;;;;30.20;43.88;101053.78;4976037;28;45386;-55
2022/08/04 13:09:05;;;;;;;;;3.50;2.75;;;;;30.10;43.97;101050.41;4973195;28;45430;-58
2022/08/04 13:11:38;;;;;;;;;2.25;2.25;;;;;30.05;44.08;101055.41;4970390;28;45304;-58
2022/08/04 13:14:05;;;;;;;;;2.00;2.00;;;;;30.05;44.68;101052.75;4977559;28;45450;-59
2022/08/04 13:16:33;;;;;;;;;4.25;3.00;;;;;30.11;44.36;101057.44;4977748;28;45180;-54
2022/08/04 13:18:59;;;;;;;;;4.25;3.00;;;;;30.16;44.66;101057.78;4977568;28;47041;-53
2022/08/04 13:21:28;;;;;;;;;3.25;1.50;;;;;30.10;44.29;101059.28;4977318;28;45318;-53
2022/08/04 13:24:14;;;;;;;;;4.50;3.00;;;;;30.05;44.59;101058.94;4990120;28;45317;-52
2022/08/04 13:27:00;;;;;;;;;1.50;1.50;;;;;30.05;44.55;101055.41;4977384;28;45481;-50
2022/08/04 13:29:40;;;;;;;;;2.75;2.75;;;;;30.11;44.28;101054.78;4964958;28;45412;-51
2022/08/04 13:32:07;;;;;;;;;3.50;3.50;;;;;30.15;43.64;101053.44;4977133;28;45448;-53
2022/08/04 13:34:34;;;;;;;;;2.50;2.25;;;;;30.14;43.88;101055.28;4977075;28;45276;-54
2022/08/04 13:37:01;;;;;;;;;1.75;1.50;;;;;30.11;43.44;101054.78;4968096;28;45612;-53
2022/08/04 13:39:28;;;;;;;;;4.50;3.00;;;;;30.15;43.62;101050.75;4976753;28;46821;-53
2022/08/04 13:41:58;;;;;;;;;2.25;2.25;;;;;30.25;44.29;101043.44;4977294;28;45172;-53
2022/08/04 13:44:29;;;;;;;;;2.75;2.75;;;;;30.34;44.12;101045.13;4977218;28;45309;-53
2022/08/04 13:47:02;;;;;;;;;5.25;3.00;;;;;30.36;43.84;101035.06;4987509;28;45207;-54
2022/08/04 13:49:27;;;;;;;;;3.50;3.50;;;;;30.40;43.94;101047.16;4976944;28;46208;-60
2022/08/04 13:51:56;;;;;;;;;7.00;5.75;;;;;30.50;43.04;101034.44;4976936;28;45258;-61
2022/08/04 13:54:22;;;;;;;;;6.00;4.00;;;;;30.68;42.12;101042.41;4977176;28;45271;-56
2022/08/04 13:56:52;;;;;;;;;6.50;4.50;;;;;30.72;42.40;101040.22;4976868;28;45341;-56
2022/08/04 13:59:23;;;;;;;;;5.00;5.00;;;;;30.78;42.08;101042.22;4977248;28;45262;-55
2022/08/04 14:01:59;;;;;;;;;5.00;4.00;;;;;30.85;41.76;101043.25;4976678;28;45571;-56
2022/08/04 14:04:26;;;;;;;;;4.00;4.00;;;;;31.00;41.92;101041.56;4976769;28;45145;-56
2022/08/04 14:07:05;;;;;;;;;4.75;4.00;;;;;31.21;41.01;101046.47;4976748;28;45164;-57
2022/08/04 14:09:32;;;;;;;;;6.50;4.75;;;;;31.39;41.66;101035.53;4975492;28;46381;-55
2022/08/04 14:12:12;;;;;;;;;6.50;3.50;;;;;31.60;41.45;101029.59;4973884;28;45399;-56
2022/08/04 14:14:50;;;;;;;;;5.00;5.00;;;;;31.60;41.07;101035.81;4973169;28;45435;-56
2022/08/04 14:17:17;;;;;;;;;3.75;3.75;;;;;31.60;40.22;101027.75;4962258;28;45635;-55
2022/08/04 14:19:45;;;;;;;;;3.00;2.75;;;;;31.74;40.63;101026.25;4963780;28;46178;-58
2022/08/04 14:22:28;;;;;;;;;6.25;5.25;;;;;31.97;39.64;101020.94;4965825;28;45210;-57
2022/08/04 14:24:59;;;;;;;;;6.50;5.00;;;;;32.17;39.10;101029.44;4976155;28;45465;-55
2022/08/04 14:27:27;;;;;;;;;3.00;3.00;;;;;32.10;39.28;101021.25;4974708;28;45470;-53
2022/08/04 14:29:53;;;;;;;;;3.00;3.00;;;;;32.12;39.53;101029.13;4971925;28;45584;-54
2022/08/04 14:32:18;;;;;;;;;4.00;4.00;;;;;32.35;40.62;101025.50;4972464;28;45445;-52
2022/08/04 14:34:45;;;;;;;;;5.00;3.25;;;;;32.93;37.95;101025.97;4969429;28;45248;-52
2022/08/04 14:37:15;;;;;;;;;5.75;4.25;;;;;33.60;38.45;101019.78;4978860;28;45560;-51
2022/08/04 14:39:45;;;;;;;;;7.50;5.50;;;;;34.25;35.63;101017.16;4980671;28;46356;-50
2022/08/04 14:42:11;;;;;;;;;5.50;4.75;;;;;34.93;36.76;101025.78;4982573;28;45505;-50
2022/08/04 14:45:06;;;;;;;;;4.25;3.75;;;;;35.38;35.48;101034.47;4988471;28;45358;-52
2022/08/04 14:47:43;;;;;;;;;5.75;3.50;;;;;35.56;32.75;101027.53;4991229;28;45376;-54
2022/08/04 14:50:09;;;;;;;;;3.00;3.00;;;;;35.74;34.61;101034.28;4972444;28;45449;-55
2022/08/04 14:52:36;;;;;;;;;4.75;3.75;;;;;35.92;33.05;101026.50;4969666;28;45500;-57
2022/08/04 14:55:23;;;;;;;;;4.25;4.00;;;;;35.56;32.80;101015.88;4976834;28;45640;-56
2022/08/04 14:57:50;;;;;;;;;1.00;1.00;;;;;35.24;33.18;101026.25;4977392;28;45461;-55
2022/08/04 15:00:31;;;;;;;;;6.00;5.00;;;;;35.13;34.11;101032.19;4978395;28;45374;-56
2022/08/04 15:03:03;;;;;;;;;5.25;5.00;;;;;34.77;34.06;101030.38;4978050;28;45746;-54
2022/08/04 15:05:30;;;;;;;;;4.50;2.75;;;;;34.07;34.81;101031.06;4978449;28;45581;-53
2022/08/04 15:07:57;;;;;;;;;4.75;4.75;;;;;33.63;34.89;101038.28;4978414;28;45310;-49
2022/08/04 15:10:23;;;;;;;;;4.50;4.25;;;;;33.29;35.81;101034.25;4978441;28;46001;-50
2022/08/04 15:12:49;;;;;;;;;5.50;5.25;;;;;33.20;36.37;101048.78;4977468;28;45474;-52
2022/08/04 15:15:14;;;;;;;;;6.00;6.00;;;;;33.01;36.08;101050.13;4978033;28;45293;-52
2022/08/04 15:17:41;;;;;;;;;8.00;5.00;;;;;32.69;36.37;101040.44;4975598;28;45447;-54
2022/08/04 15:20:07;;;;;;;;;7.00;5.25;;;;;32.61;36.76;101052.06;4969144;28;45314;-53
2022/08/04 15:22:33;;;;;;;;;4.00;4.00;;;;;32.47;37.09;101058.22;4978428;28;45183;-51
2022/08/04 15:24:59;;;;;;;;;5.75;4.00;;;;;32.47;37.85;101058.22;4978764;28;45438;-52
2022/08/04 15:27:28;;;;;;;;;5.50;2.00;;;;;32.78;36.92;101047.41;4978615;28;45199;-52
2022/08/04 15:29:58;;;;;;;;;6.75;4.75;;;;;32.90;36.84;101054.09;4977923;28;46172;-52
2022/08/04 15:32:25;;;;;;;;;9.25;4.50;;;;;32.73;35.78;101065.13;4977279;28;45829;-51
2022/08/04 15:34:53;;;;;;;;;4.50;4.50;;;;;32.46;36.56;101061.09;4977222;28;45436;-50
2022/08/04 15:37:37;;;;;;;;;5.00;4.25;;;;;32.19;36.50;101065.91;4990666;28;45403;-53
2022/08/04 15:40:10;;;;;;;;;4.00;4.00;;;;;31.98;36.57;101062.97;4980669;28;46360;-51
2022/08/04 15:42:48;;;;;;;;;3.00;2.50;;;;;31.75;37.48;101070.94;4976841;28;45500;-52
2022/08/04 15:45:24;;;;;;;;;5.00;4.50;;;;;31.39;37.96;101073.13;4978618;28;45449;-52
2022/08/04 15:48:01;;;;;;;;;6.50;4.75;;;;;31.13;38.20;101082.19;4980242;28;45402;-51
2022/08/04 15:50:27;;;;;;;;;5.75;3.25;;;;;30.91;39.01;101085.53;4973797;28;46276;-53
2022/08/04 15:53:04;;;;;;;;;3.00;3.00;;;;;30.76;39.63;101100.59;4974573;28;45242;-53
2022/08/04 15:55:33;;;;;;;;;8.25;5.25;;;;;30.52;40.24;101104.03;4976008;28;45337;-53
2022/08/04 15:58:03;;;;;;;;;16.75;10.25;;;;;30.25;40.20;101095.22;4976672;28;45313;-51
2022/08/04 16:00:48;;;;;;;;;5.00;5.00;;;;;30.02;42.07;101115.50;4976349;28;47055;-51
2022/08/04 16:03:41;;;;;;;;;4.25;4.00;;;;;29.86;42.08;101126.97;4976845;28;45388;-55
2022/08/04 16:06:06;;;;;;;;;5.75;4.00;;;;;29.78;41.69;101132.28;4971893;28;45600;-53
2022/08/04 16:08:47;;;;;;;;;6.50;6.00;;;;;29.76;42.20;101136.94;4977420;28;45276;-51
2022/08/04 16:11:24;;;;;;;;;12.75;8.00;;;;;29.68;42.69;101143.09;4977149;28;45280;-49
2022/08/04 16:13:59;;;;;;;;;6.00;4.25;;;;;29.70;42.74;101145.63;4980549;28;46038;-51
2022/08/04 16:16:45;;;;;;;;;5.25;5.00;;;;;29.70;42.63;101147.47;4977618;28;45729;-51
2022/08/04 16:19:16;;;;;;;;;8.00;4.75;;;;;29.71;43.02;101159.84;4979901;28;45301;-50
2022/08/04 16:21:56;;;;;;;;;5.75;5.00;;;;;29.65;43.11;101139.91;4985577;27;47321;-54
2022/08/04 16:24:27;;;;;;;;;6.75;5.50;;;;;29.51;44.61;101149.31;4976019;28;45275;-49
2022/08/04 16:27:05;;;;;;;;;7.25;6.00;;;;;29.31;46.33;101139.75;4977969;28;45382;-48
2022/08/04 16:29:36;;;;;;;;;7.00;5.75;;;;;29.16;46.27;101118.03;4965632;28;45508;-49
2022/08/04 16:32:04;;;;;;;;;6.75;6.50;;;;;29.01;46.20;101106.16;4977174;28;45295;-51
2022/08/04 16:34:44;;;;;;;;;6.25;6.25;;;;;28.93;46.86;101095.41;4977580;28;45219;-50
2022/08/04 16:37:12;;;;;;;;;5.75;4.25;;;;;28.76;48.71;101095.19;4977293;28;45428;-51
2022/08/04 16:39:39;;;;;;;;;6.00;4.25;;;;;28.65;48.07;101073.19;5008496;28;45430;-50
2022/08/04 16:42:26;;;;;;;;;7.75;7.00;;;;;28.48;48.09;101053.44;4976286;28;47102;-49
2022/08/04 16:45:08;;;;;;;;;10.25;6.50;;;;;28.40;48.51;101058.69;4970813;28;45212;-51
2022/08/04 16:48:00;;;;;;;;;9.50;6.00;;;;;28.35;49.60;101035.09;4983104;28;45550;-51
2022/08/04 16:50:25;;;;;;;;;8.75;8.00;;;;;28.34;49.04;101035.22;4973669;28;45358;-54
2022/08/04 16:52:52;;;;;;;;;4.25;3.00;;;;;28.39;49.08;101040.97;4977051;28;46784;-55
2022/08/04 16:55:19;;;;;;;;;6.25;6.00;;;;;28.34;50.00;101035.22;4977053;28;45469;-53
2022/08/04 16:57:46;;;;;;;;;6.75;6.75;;;;;28.31;51.00;101031.03;4977030;28;45267;-56
2022/08/04 17:00:11;;;;;;;;;6.00;6.00;;;;;28.20;51.14;101039.22;4975765;28;45248;-62
2022/08/04 17:02:37;;;;;;;;;7.25;5.50;;;;;28.03;50.88;101030.19;4977453;28;47466;-49
2022/08/04 17:05:02;;;;;;;;;5.75;5.75;;;;;27.94;51.15;101030.22;4975998;28;45264;-52
2022/08/04 17:07:27;;;;;;;;;8.50;8.00;;;;;27.92;51.49;101027.69;4977173;28;45287;-53
2022/08/04 17:09:54;;;;;;;;;9.50;7.00;;;;;28.01;50.60;101016.09;4975670;28;45513;-64
2022/08/04 17:12:27;;;;;;;;;9.50;7.25;;;;;28.04;50.13;101023.00;4966137;28;47073;-70
2022/08/04 17:14:52;;;;;;;;;9.00;7.25;;;;;28.02;49.90;101014.25;4964484;28;45402;-62
2022/08/04 17:17:22;;;;;;;;;7.75;5.50;;;;;27.97;50.73;101009.38;4976614;28;45570;-59
2022/08/04 17:19:52;;;;;;;;;7.25;6.75;;;;;27.89;51.24;101006.63;4977277;28;45549;-57
2022/08/04 17:22:19;;;;;;;;;8.00;6.50;;;;;27.75;51.87;101001.75;4976012;28;46167;-56
2022/08/04 17:24:44;;;;;;;;;5.00;5.00;;;;;27.67;50.88;101005.16;4965065;28;45182;-63
2022/08/04 17:27:10;;;;;;;;;7.50;7.00;;;;;27.67;50.87;101015.00;4987328;28;45151;-58
2022/08/04 17:29:35;;;;;;;;;6.75;6.50;;;;;27.66;50.54;101010.66;4976817;28;45391;-55
2022/08/04 17:32:00;;;;;;;;;6.50;5.00;;;;;27.74;50.59;101002.72;4978035;28;46321;-56
2022/08/04 17:34:26;;;;;;;;;8.75;7.00;;;;;27.95;51.30;101022.03;4973929;28;48253;-54
2022/08/04 17:36:51;;;;;;;;;6.75;5.75;;;;;28.25;49.95;101044.13;4972668;28;45344;-54
2022/08/04 17:39:23;;;;;;;;;10.00;7.25;;;;;28.54;50.03;101042.13;4976469;28;45439;-54
2022/08/04 17:41:54;;;;;;;;;8.75;5.25;;;;;28.70;49.91;101053.00;4973709;28;46200;-51
2022/08/04 17:44:20;;;;;;;;;8.75;7.00;;;;;28.71;49.42;101048.50;4976970;28;45204;-53
2022/08/04 17:46:45;;;;;;;;;6.75;6.75;;;;;28.61;50.31;101053.06;4980649;28;45173;-52
2022/08/04 17:49:20;;;;;;;;;7.50;7.50;;;;;28.49;50.49;101052.44;4977337;28;45788;-52
2022/08/04 17:51:57;;;;;;;;;6.75;6.25;;;;;28.45;51.27;101062.63;4982333;28;45598;-53
2022/08/04 17:54:25;;;;;;;;;5.75;2.75;;;;;28.32;51.25;101067.47;4973193;28;45572;-53
2022/08/04 17:56:52;;;;;;;;;9.75;8.00;;;;;28.27;51.61;101060.88;4975857;28;45526;-61
2022/08/04 17:59:36;;;;;;;;;8.00;7.50;;;;;28.15;52.18;101061.03;4975532;28;45533;-59
2022/08/04 18:02:01;;;;;;;;;7.25;7.00;;;;;27.96;52.71;101071.81;4992360;28;47599;-58
2022/08/04 18:04:40;;;;;;;;;5.50;5.50;;;;;27.75;52.82;101074.69;4974651;28;45590;-59
2022/08/04 18:07:11;;;;;;;;;7.25;7.25;;;;;27.59;52.43;101071.75;4972694;28;45576;-59
2022/08/04 18:09:55;;;;;;;;;13.25;11.50;;;;;27.53;52.73;101069.66;4975498;28;45673;-58
2022/08/04 18:12:31;;;;;;;;;9.50;9.50;;;;;27.46;52.93;101061.41;4978155;28;45381;-59
2022/08/04 18:14:58;;;;;;;;;11.00;10.00;;;;;27.41;53.72;101079.66;4977064;28;45568;-59
2022/08/04 18:17:32;;;;;;;;;18.00;15.50;;;;;27.29;53.75;101072.81;4978284;28;45789;-59
2022/08/04 18:19:59;;;;;;;;;8.50;8.50;;;;;27.21;55.39;101086.00;4985880;28;45615;-60
2022/08/04 18:22:25;;;;;;;;;10.00;7.25;;;;;27.14;54.89;101084.88;4979370;28;46213;-59
2022/08/04 18:24:50;;;;;;;;;13.50;10.25;;;;;27.05;55.99;101083.06;4978618;28;45250;-60
2022/08/04 18:27:18;;;;;;;;;9.50;8.75;;;;;27.01;55.30;101085.16;4978246;28;45465;-58
2022/08/04 18:29:44;;;;;;;;;8.00;8.00;;;;;26.97;55.40;101092.56;4979073;28;45458;-57
2022/08/04 18:32:10;;;;;;;;;9.75;8.00;;;;;26.93;56.32;101085.81;4977300;28;45325;-58
2022/08/04 18:34:36;;;;;;;;;6.75;4.25;;;;;26.92;54.54;101083.28;4977070;28;45376;-59
2022/08/04 18:37:02;;;;;;;;;11.50;9.50;;;;;26.89;56.24;101094.25;4977045;28;45528;-58
2022/08/04 18:39:28;;;;;;;;;8.50;6.25;;;;;26.83;55.20;101092.13;4976795;28;45556;-59
2022/08/04 18:41:55;;;;;;;;;5.50;4.75;;;;;26.79;55.69;101102.22;4976551;28;45592;-58
2022/08/04 18:44:21;;;;;;;;;5.00;5.00;;;;;26.75;54.87;101087.47;4977152;28;45650;-59
2022/08/04 18:46:47;;;;;;;;;8.50;7.00;;;;;26.69;55.90;101098.72;4979317;28;45307;-59
2022/08/04 18:49:13;;;;;;;;;6.50;6.50;;;;;26.61;55.37;101102.03;4978465;28;45497;-63
2022/08/04 18:51:38;;;;;;;;;9.75;8.25;;;;;26.56;55.69;101103.44;4970884;28;46009;-63
2022/08/04 18:54:05;;;;;;;;;7.25;7.00;;;;;26.53;57.03;101114.38;4978946;28;45298;-63
2022/08/04 18:56:31;;;;;;;;;9.50;7.25;;;;;26.47;56.15;101118.44;4979170;28;45368;-62
2022/08/04 18:58:57;;;;;;;;;6.75;5.75;;;;;26.38;55.67;101114.75;4978757;28;45289;-62
2022/08/04 19:01:22;;;;;;;;;6.00;6.00;;;;;26.28;55.82;101116.53;4978047;28;46033;-63
2022/08/04 19:03:47;;;;;;;;;4.25;4.25;;;;;26.19;56.21;101119.97;4978597;28;45367;-64
2022/08/04 19:06:13;;;;;;;;;9.25;7.00;;;;;26.05;55.42;101121.19;4981534;28;45557;-63
2022/08/04 19:08:38;;;;;;;;;3.00;2.00;;;;;25.88;55.71;101123.63;4989418;28;45341;-64
2022/08/04 19:11:05;;;;;;;;;7.75;5.50;;;;;25.67;55.75;101121.81;4978800;28;45324;-62
2022/08/04 19:13:30;;;;;;;;;4.25;1.00;;;;;25.56;55.66;101123.66;4977864;28;45224;-60
2022/08/04 19:15:57;;;;;;;;;3.25;3.25;;;;;25.38;57.07;101126.88;4978938;28;45322;-62
2022/08/04 19:18:23;;;;;;;;;5.75;4.25;;;;;25.20;56.57;101124.91;4979020;28;45268;-62
2022/08/04 19:20:49;;;;;;;;;3.75;3.25;;;;;25.08;56.43;101124.94;4977547;28;46187;-60
2022/08/04 19:23:14;;;;;;;;;3.25;3.00;;;;;25.02;55.25;101119.28;4971069;28;45411;-61
2022/08/04 19:25:40;;;;;;;;;4.50;3.50;;;;;24.92;55.76;101135.13;4978937;28;45358;-59
2022/08/04 19:28:05;;;;;;;;;7.00;6.00;;;;;24.79;55.58;101129.09;4979068;28;45457;-59
2022/08/04 19:30:31;;;;;;;;;4.75;4.00;;;;;24.69;55.47;101139.63;4978579;28;46210;-59
2022/08/04 19:32:56;;;;;;;;;5.00;5.00;;;;;24.63;55.79;101147.25;4978791;28;45363;-59
2022/08/04 19:35:21;;;;;;;;;2.25;2.25;;;;;24.52;55.41;101159.59;4978392;28;45498;-59
2022/08/04 19:37:47;;;;;;;;;5.25;3.75;;;;;24.44;55.58;101154.03;4978145;28;45318;-59
2022/08/04 19:40:12;;;;;;;;;3.00;3.00;;;;;24.37;56.91;101144.84;4977743;28;45661;-59
2022/08/04 19:42:38;;;;;;;;;5.00;4.00;;;;;24.27;56.21;101154.50;4978098;28;45321;-59
2022/08/04 19:45:05;;;;;;;;;3.25;3.25;;;;;24.24;56.30;101152.09;4977710;28;45351;-58
2022/08/04 19:47:30;;;;;;;;;4.50;4.00;;;;;24.18;56.17;101142.75;4988819;28;45469;-58
2022/08/04 19:49:55;;;;;;;;;5.00;5.00;;;;;24.12;55.73;101135.28;4979491;28;46341;-57
2022/08/04 19:52:21;;;;;;;;;5.00;3.25;;;;;24.07;56.37;101152.53;4989885;28;45181;-57
2022/08/04 19:54:46;;;;;;;;;5.00;3.50;;;;;23.93;56.58;101145.63;4977845;28;45219;-58
2022/08/04 19:57:12;;;;;;;;;3.00;3.00;;;;;23.86;56.49;101150.59;4972499;28;45205;-58
2022/08/04 19:59:37;;;;;;;;;3.00;2.00;;;;;23.78;55.83;101126.41;4979978;28;46297;-60
2022/08/04 20:02:02;;;;;;;;;3.50;3.50;;;;;23.78;56.02;101141.50;4989792;28;45201;-57
2022/08/04 20:04:28;;;;;;;;;3.00;3.00;;;;;23.76;55.96;101140.78;4977160;28;45319;-58
2022/08/04 20:06:53;;;;;;;;;5.50;5.25;;;;;23.75;55.90;101170.94;4978527;28;45214;-60
2022/08/04 20:09:19;;;;;;;;;5.50;3.00;;;;;23.60;55.74;101159.66;4978082;28;45934;-60
2022/08/04 20:11:45;;;;;;;;;3.25;3.25;;;;;23.62;56.91;101182.47;4978544;28;45215;-61
2022/08/04 20:14:11;;;;;;;;;3.25;3.25;;;;;23.59;56.60;101182.69;4978364;28;45299;-59
2022/08/04 20:16:36;;;;;;;;;4.00;3.00;;;;;23.53;56.67;101175.16;4978305;28;45573;-61
2022/08/04 20:19:01;;;;;;;;;4.25;3.25;;;;;23.48;56.55;101187.94;4989913;28;46253;-59
2022/08/04 20:21:27;;;;;;;;;3.00;2.00;;;;;23.41;56.80;101186.69;4978216;28;45365;-60
2022/08/04 20:23:52;;;;;;;;;2.50;2.50;;;;;23.42;56.28;101188.38;4978434;28;45315;-59
2022/08/04 20:26:17;;;;;;;;;3.00;3.00;;;;;23.42;55.90;101196.31;4976419;28;45445;-58
2022/08/04 20:28:43;;;;;;;;;3.25;3.25;;;;;23.37;55.66;101199.31;4973651;28;46357;-59
2022/08/04 20:31:08;;;;;;;;;3.00;3.00;;;;;23.38;56.12;101206.31;4977890;28;45340;-59
2022/08/04 20:33:33;;;;;;;;;5.00;2.50;;;;;23.38;55.30;101219.59;4975451;28;45938;-60
2022/08/04 20:35:59;;;;;;;;;3.00;3.00;;;;;23.35;55.31;101214.50;4976954;28;45438;-59
2022/08/04 20:38:24;;;;;;;;;6.00;4.00;;;;;23.38;55.63;101222.25;4977785;28;45443;-59
2022/08/04 20:40:49;;;;;;;;;4.00;4.00;;;;;23.37;55.60;101217.06;4977941;28;45324;-58
2022/08/04 20:43:15;;;;;;;;;3.00;2.00;;;;;23.35;54.87;101222.47;4977835;28;50950;-60
2022/08/04 20:45:40;;;;;;;;;10.50;6.75;;;;;23.36;55.33;101218.84;4977503;28;45359;-58
2022/08/04 20:48:05;;;;;;;;;3.00;3.00;;;;;23.45;56.16;101222.66;4987926;27;45254;-60
2022/08/04 20:50:32;;;;;;;;;4.50;4.00;;;;;23.57;55.21;101227.06;4975882;28;45205;-52
2022/08/04 20:52:57;;;;;;;;;5.00;2.00;;;;;23.70;53.79;101212.91;4969973;28;45361;-50
2022/08/04 20:55:23;;;;;;;;;2.00;2.00;;;;;23.62;53.91;101200.19;4975483;28;45236;-52
2022/08/04 20:57:49;;;;;;;;;4.25;3.75;;;;;23.58;54.98;101214.66;4971504;28;45201;-53
2022/08/04 21:00:14;;;;;;;;;3.50;3.50;;;;;23.76;54.05;101213.28;4992563;28;45228;-59
2022/08/04 21:02:40;;;;;;;;;2.00;1.50;;;;;23.81;53.96;101207.63;4976665;28;45275;-56
2022/08/04 21:05:06;;;;;;;;;6.25;4.00;;;;;23.75;53.56;101206.28;4977657;28;45353;-56
2022/08/04 21:07:31;;;;;;;;;4.75;3.50;;;;;23.75;53.68;101213.41;4977323;28;45424;-59
2022/08/04 21:09:56;;;;;;;;;5.25;3.00;;;;;23.73;53.74;101192.28;4977362;28;45428;-56
2022/08/04 21:12:22;;;;;;;;;4.00;4.00;;;;;23.68;53.46;101173.22;4977637;28;45318;-55
2022/08/04 21:14:47;;;;;;;;;5.25;3.50;;;;;23.68;53.46;101170.56;4973408;28;45397;-53
2022/08/04 21:17:12;;;;;;;;;3.00;2.75;;;;;23.80;53.34;101160.81;4975503;28;46250;-60
2022/08/04 21:19:38;;;;;;;;;4.00;4.00;;;;;23.73;53.39;101148.97;4975512;28;45335;-61
2022/08/04 21:22:06;;;;;;;;;2.75;2.75;;;;;23.59;53.11;101168.56;4974132;28;45445;-61
2022/08/04 21:24:32;;;;;;;;;4.00;4.00;;;;;23.49;53.36;101210.84;4974445;28;45233;-60
2022/08/04 21:26:59;;;;;;;;;3.75;3.75;;;;;23.43;53.18;101253.75;4975663;28;46322;-61
2022/08/04 21:29:24;;;;;;;;;3.75;2.75;;;;;23.43;54.13;101243.16;4972288;28;45417;-61
2022/08/04 21:31:50;;;;;;;;;7.50;3.00;;;;;23.43;53.99;101205.16;4975797;28;45291;-61